createdAt,value
2022-09-17T10:50:24.847Z,16.00
2022-09-17T10:55:35.803Z,16.30
2022-09-17T11:00:44.219Z,16.40
2022-09-17T11:06:15.222Z,16.50
2022-09-17T11:11:41.774Z,16.40
2022-09-17T11:17:19.529Z,16.30
2022-09-17T11:22:54.411Z,16.70
2022-09-17T11:28:12.769Z,15.20
2022-09-17T11:33:41.024Z,14.60
2022-09-17T11:38:49.127Z,14.80
2022-09-17T11:44:29.600Z,15.20
2022-09-17T11:49:50.428Z,15.30
2022-09-17T11:55:13.802Z,15.50
2022-09-17T12:00:18.437Z,16.00
2022-09-17T12:05:31.389Z,16.00
2022-09-17T12:10:42.809Z,16.20
2022-09-17T12:15:52.929Z,15.80
2022-09-17T12:20:59.430Z,16.10
2022-09-17T12:26:20.747Z,16.10
2022-09-17T12:31:39.873Z,16.00
2022-09-17T12:36:52.736Z,16.10
2022-09-17T12:42:29.917Z,16.30
2022-09-17T12:48:00.325Z,16.50
2022-09-17T12:53:15.532Z,17.00
2022-09-17T12:58:27.225Z,17.20
2022-09-17T13:04:01.213Z,17.60
2022-09-17T13:09:19.720Z,17.10
2022-09-17T13:14:32.535Z,17.40
2022-09-17T13:19:52.925Z,17.60
2022-09-17T13:25:05.365Z,15.90
2022-09-17T13:30:08.751Z,15.20
2022-09-17T13:35:10.335Z,15.90
2022-09-17T13:40:30.268Z,16.90
2022-09-17T13:45:34.590Z,17.50
2022-09-17T13:50:41.577Z,17.80
2022-09-17T13:55:54.823Z,17.90
2022-09-17T14:01:01.610Z,17.70
2022-09-17T14:06:09.360Z,16.90
2022-09-17T14:11:27.680Z,17.20
2022-09-17T14:16:40.534Z,17.20
2022-09-17T14:22:16.626Z,17.80
2022-09-17T14:27:57.619Z,18.70
2022-09-17T14:33:19.373Z,18.20
2022-09-17T14:38:44.964Z,18.30
2022-09-17T14:44:20.996Z,17.50
2022-09-17T14:49:26.075Z,17.40
2022-09-17T14:54:33.649Z,18.20
2022-09-17T14:59:49.126Z,18.80
2022-09-17T15:04:50.763Z,19.60
2022-09-17T15:09:55.248Z,19.40
2022-09-17T15:14:58.282Z,19.30
2022-09-17T15:20:04.842Z,19.20
2022-09-17T15:25:10.585Z,19.10
2022-09-17T15:30:15.316Z,18.50
2022-09-17T15:35:21.527Z,18.80
2022-09-17T15:40:41.175Z,19.20
2022-09-17T15:45:43.103Z,19.20
2022-09-17T15:50:59.792Z,17.90
2022-09-17T15:56:09.540Z,17.00
2022-09-17T16:01:14.683Z,16.60
2022-09-17T16:06:22.192Z,16.30
2022-09-17T16:11:26.133Z,16.00
2022-09-17T16:16:36.572Z,15.80
2022-09-17T16:21:38.264Z,15.70
2022-09-17T16:26:40.864Z,15.60
2022-09-17T16:31:42.636Z,15.50
2022-09-17T16:36:44.323Z,15.30
2022-09-17T16:41:45.967Z,15.30
2022-09-17T16:46:47.686Z,15.10
2022-09-17T16:51:49.488Z,14.90
2022-09-17T16:56:51.537Z,13.90
2022-09-17T17:01:53.198Z,11.90
2022-09-17T17:06:54.813Z,11.90
2022-09-17T17:11:56.634Z,11.80
2022-09-17T17:16:58.475Z,11.70
2022-09-17T17:22:00.218Z,11.90
2022-09-17T17:27:01.879Z,12.10
2022-09-17T17:32:05.138Z,12.10
2022-09-17T17:37:06.841Z,12.30
2022-09-17T17:42:08.761Z,12.40
2022-09-17T17:47:10.406Z,12.40
2022-09-17T17:52:12.022Z,12.40
2022-09-17T17:57:13.717Z,12.30
2022-09-17T18:02:15.457Z,12.20
2022-09-17T18:07:17.129Z,12.30
2022-09-17T18:12:18.735Z,12.20
2022-09-17T18:17:20.438Z,12.20
2022-09-17T18:22:22.998Z,12.10
2022-09-17T18:27:24.649Z,12.10
2022-09-17T18:32:26.344Z,12.10
2022-09-17T18:37:28.843Z,12.10
2022-09-17T18:42:30.477Z,12.20
2022-09-17T18:47:32.116Z,12.20
2022-09-17T18:52:33.748Z,12.10
2022-09-17T18:57:35.527Z,11.90
2022-09-17T19:02:39.064Z,11.70
2022-09-17T19:07:47.033Z,11.50
2022-09-17T19:12:50.028Z,11.60
2022-09-17T19:17:53.202Z,11.50
2022-09-17T19:22:54.949Z,11.50
2022-09-17T19:27:56.807Z,11.40
2022-09-17T19:32:58.925Z,11.30
2022-09-17T19:38:01.114Z,11.30
2022-09-17T19:43:02.816Z,11.20
2022-09-17T19:48:04.525Z,11.30
2022-09-17T19:53:06.218Z,11.30
2022-09-17T19:58:08.095Z,11.50
2022-09-17T20:03:10.040Z,11.30
2022-09-17T20:08:11.844Z,11.30
2022-09-17T20:13:13.581Z,11.30
2022-09-17T20:18:18.642Z,11.20
2022-09-17T20:23:24.907Z,11.10
2022-09-17T20:28:27.855Z,11.00
2022-09-17T20:33:29.654Z,11.00
2022-09-17T20:39:10.194Z,10.90
2022-09-17T20:43:54.654Z,10.90
2022-09-17T20:48:58.192Z,10.80
2022-09-17T20:54:03.834Z,10.80
2022-09-17T20:59:13.079Z,10.60
2022-09-17T21:04:18.831Z,10.40
2022-09-17T21:09:20.605Z,10.50
2022-09-17T21:14:24.151Z,10.30
2022-09-17T21:19:25.929Z,10.20
2022-09-17T21:24:27.717Z,10.30
2022-09-17T21:29:30.033Z,10.30
2022-09-17T21:34:31.781Z,10.30
2022-09-17T21:39:35.497Z,10.30
2022-09-17T21:44:37.109Z,10.10
2022-09-17T21:49:40.075Z,10.10
2022-09-17T21:54:41.677Z,10.30
2022-09-17T21:59:43.320Z,10.20
2022-09-17T22:04:44.962Z,10.20
2022-09-17T22:09:46.635Z,10.30
2022-09-17T22:14:48.261Z,10.30
2022-09-17T22:19:49.885Z,10.20
2022-09-17T22:24:51.538Z,10.20
2022-09-17T22:29:53.153Z,10.20
2022-09-17T22:34:54.933Z,10.30
2022-09-17T22:39:56.678Z,10.20
2022-09-17T22:44:58.324Z,10.20
2022-09-17T22:50:00.071Z,10.20
2022-09-17T22:55:01.728Z,10.20
2022-09-17T23:00:04.291Z,10.20
2022-09-17T23:05:06.036Z,10.20
2022-09-17T23:10:07.985Z,10.30
2022-09-17T23:15:10.017Z,10.20
2022-09-17T23:20:12.230Z,10.30
2022-09-17T23:25:13.957Z,10.40
2022-09-17T23:30:15.756Z,10.40
2022-09-17T23:35:17.434Z,10.40
2022-09-17T23:40:20.734Z,10.40
2022-09-17T23:45:22.685Z,10.50
2022-09-17T23:50:25.754Z,10.50
2022-09-17T23:55:27.373Z,10.50
